createdAt,value
2022-11-27T00:01:45.101Z,98103.31
2022-11-27T00:04:15.401Z,98100.06
2022-11-27T00:06:43.862Z,98096.38
2022-11-27T00:09:16.428Z,98091.63
2022-11-27T00:11:45.368Z,98104.94
2022-11-27T00:14:17.494Z,98115.16
2022-11-27T00:16:46.799Z,98095.72
2022-11-27T00:19:15.015Z,98078.28
2022-11-27T00:21:43.190Z,98093.69
2022-11-27T00:24:13.058Z,98091.50
2022-11-27T00:26:41.367Z,98081.38
2022-11-27T00:29:10.523Z,98079.44
2022-11-27T00:31:40.510Z,98083.41
2022-11-27T00:34:10.101Z,98082.72
2022-11-27T00:36:39.244Z,98099.41
2022-11-27T00:39:08.717Z,98089.69
2022-11-27T00:41:37.781Z,98084.72
2022-11-27T00:44:07.527Z,98089.78
2022-11-27T00:46:36.737Z,98087.03
2022-11-27T00:49:08.078Z,98082.63
2022-11-27T00:51:37.093Z,98080.16
2022-11-27T00:54:06.184Z,98070.03
2022-11-27T00:56:37.965Z,98057.41
2022-11-27T00:59:07.060Z,98047.31
2022-11-27T01:01:38.635Z,98055.19
2022-11-27T01:04:13.471Z,98042.00
2022-11-27T01:06:42.575Z,98042.56
2022-11-27T01:09:13.509Z,98042.81
2022-11-27T01:11:43.199Z,98037.34
2022-11-27T01:14:16.364Z,98031.16
2022-11-27T01:16:45.228Z,98037.09
2022-11-27T01:19:17.535Z,98031.00
2022-11-27T01:21:46.490Z,98027.38
2022-11-27T01:24:16.683Z,98029.75
2022-11-27T01:26:45.891Z,98026.91
2022-11-27T01:29:14.592Z,98022.53
2022-11-27T01:31:42.835Z,98020.25
2022-11-27T01:34:17.550Z,98019.66
2022-11-27T01:36:45.905Z,98025.78
2022-11-27T01:39:17.895Z,98022.63
2022-11-27T01:41:47.979Z,98024.47
2022-11-27T01:44:55.911Z,98017.44
2022-11-27T01:47:45.900Z,98013.84
2022-11-27T01:50:21.032Z,98018.50
2022-11-27T01:52:54.352Z,98020.78
2022-11-27T01:55:29.718Z,98010.91
2022-11-27T01:58:02.926Z,98009.03
2022-11-27T02:00:31.239Z,98013.59
2022-11-27T02:02:59.548Z,98011.34
2022-11-27T02:05:30.237Z,98005.22
2022-11-27T02:08:01.556Z,98001.81
2022-11-27T02:10:44.949Z,97993.13
2022-11-27T02:13:22.267Z,97992.94
2022-11-27T02:15:59.440Z,97979.47
2022-11-27T02:18:39.787Z,97984.16
2022-11-27T02:21:19.690Z,97975.41
2022-11-27T02:24:42.749Z,97970.59
2022-11-27T02:27:48.927Z,97964.44
2022-11-27T02:30:19.029Z,97972.75
2022-11-27T02:32:53.092Z,97968.81
2022-11-27T02:35:29.083Z,97963.88
2022-11-27T02:38:01.745Z,97975.41
2022-11-27T02:40:37.920Z,97963.56
2022-11-27T02:43:11.782Z,97965.94
2022-11-27T02:45:46.018Z,97964.00
2022-11-27T02:48:17.919Z,97952.84
2022-11-27T02:50:48.319Z,97964.97
2022-11-27T02:53:22.467Z,97953.88
2022-11-27T02:55:53.801Z,97943.22
2022-11-27T02:58:26.675Z,97955.41
2022-11-27T03:00:58.643Z,97953.16
2022-11-27T03:03:31.817Z,97958.44
2022-11-27T03:06:07.124Z,97952.09
2022-11-27T03:08:42.915Z,97959.78
2022-11-27T03:11:13.751Z,97961.25
2022-11-27T03:13:47.433Z,97963.97
2022-11-27T03:16:28.414Z,97952.22
2022-11-27T03:19:04.093Z,97952.66
2022-11-27T03:21:39.647Z,97954.31
2022-11-27T03:24:10.139Z,97955.19
2022-11-27T03:26:39.998Z,97946.66
2022-11-27T03:29:13.614Z,97942.28
2022-11-27T03:31:44.404Z,97933.50
2022-11-27T03:34:13.758Z,97932.72
2022-11-27T03:36:42.271Z,97947.44
2022-11-27T03:39:11.700Z,97932.44
2022-11-27T03:41:49.818Z,97933.50
2022-11-27T03:44:29.607Z,97924.66
2022-11-27T03:47:13.952Z,97936.56
2022-11-27T03:50:00.586Z,97933.41
2022-11-27T03:52:38.107Z,97925.22
2022-11-27T03:55:13.790Z,97919.81
2022-11-27T03:57:49.410Z,97926.69
2022-11-27T04:00:18.608Z,97934.38
2022-11-27T04:02:52.092Z,97927.94
2022-11-27T04:05:21.889Z,97928.91
2022-11-27T04:07:50.601Z,97935.44
2022-11-27T04:10:19.638Z,97922.38
2022-11-27T04:12:48.346Z,97924.66
2022-11-27T04:15:17.389Z,97915.06
2022-11-27T04:17:47.325Z,97913.06
2022-11-27T04:20:17.119Z,97924.28
2022-11-27T04:22:45.463Z,97917.00
2022-11-27T04:25:13.931Z,97926.59
2022-11-27T04:27:42.401Z,97925.28
2022-11-27T04:30:14.501Z,97918.59
2022-11-27T04:32:43.500Z,97918.13
2022-11-27T04:35:13.602Z,97923.75
2022-11-27T04:37:42.018Z,97916.19
2022-11-27T04:40:11.711Z,97918.84
2022-11-27T04:42:40.088Z,97917.69
2022-11-27T04:45:09.881Z,97902.94
2022-11-27T04:47:38.219Z,97908.47
2022-11-27T04:50:09.017Z,97915.88
2022-11-27T04:52:39.054Z,97915.75
2022-11-27T04:55:09.240Z,97908.94
2022-11-27T04:57:37.658Z,97904.47
2022-11-27T05:00:08.377Z,97909.84
2022-11-27T05:02:36.769Z,97913.97
2022-11-27T05:05:05.792Z,97912.44
2022-11-27T05:07:34.338Z,97918.47
2022-11-27T05:10:04.846Z,97911.09
2022-11-27T05:12:33.243Z,97904.13
2022-11-27T05:15:04.378Z,97896.06
2022-11-27T05:17:33.255Z,97901.03
2022-11-27T05:20:01.599Z,97902.81
2022-11-27T05:22:29.839Z,97909.66
2022-11-27T05:24:58.143Z,97914.88
2022-11-27T05:27:28.162Z,97909.88
2022-11-27T05:29:56.594Z,97913.16
2022-11-27T05:32:25.610Z,97915.97
2022-11-27T05:34:53.999Z,97915.63
2022-11-27T05:37:23.172Z,97915.59
2022-11-27T05:39:51.835Z,97909.69
2022-11-27T05:42:20.489Z,97911.84
2022-11-27T05:44:55.298Z,97914.72
2022-11-27T05:47:26.967Z,97899.97
2022-11-27T05:49:55.251Z,97920.19
2022-11-27T05:52:24.550Z,97920.75
2022-11-27T05:54:52.875Z,97928.28
2022-11-27T05:57:21.369Z,97919.13
2022-11-27T05:59:51.047Z,97915.97
2022-11-27T06:02:23.770Z,97910.84
2022-11-27T06:04:55.198Z,97910.44
2022-11-27T06:07:24.270Z,97902.84
2022-11-27T06:09:52.732Z,97898.69
2022-11-27T06:12:21.574Z,97895.66
2022-11-27T06:14:51.284Z,97890.09
2022-11-27T06:17:19.785Z,97896.19
2022-11-27T06:19:48.915Z,97893.09
2022-11-27T06:22:17.889Z,97886.69
2022-11-27T06:24:46.646Z,97886.66
2022-11-27T06:27:15.456Z,97895.19
2022-11-27T06:29:44.708Z,97880.41
2022-11-27T06:32:14.855Z,97896.09
2022-11-27T06:34:43.783Z,97898.84
2022-11-27T06:37:13.529Z,97900.84
2022-11-27T06:39:41.891Z,97895.75
2022-11-27T06:42:10.697Z,97899.63
2022-11-27T06:44:39.247Z,97898.28
2022-11-27T06:47:07.978Z,97910.50
2022-11-27T06:49:37.863Z,97904.00
2022-11-27T06:52:08.138Z,97909.88
2022-11-27T06:54:37.122Z,97912.91
2022-11-27T06:57:06.132Z,97919.34
2022-11-27T06:59:35.335Z,97912.94
2022-11-27T07:02:03.684Z,97909.28
2022-11-27T07:04:32.354Z,97908.94
2022-11-27T07:07:02.344Z,97910.97
2022-11-27T07:09:31.143Z,97908.16
2022-11-27T07:11:59.652Z,97915.53
2022-11-27T07:14:28.919Z,97907.13
2022-11-27T07:16:58.281Z,97887.44
2022-11-27T07:19:26.845Z,97890.94
2022-11-27T07:21:55.609Z,97888.44
2022-11-27T07:24:25.905Z,97891.50
2022-11-27T07:26:54.846Z,97881.31
2022-11-27T07:29:23.619Z,97893.03
2022-11-27T07:31:52.350Z,97889.81
2022-11-27T07:34:22.080Z,97880.63
2022-11-27T07:36:50.813Z,97876.09
2022-11-27T07:39:33.780Z,97876.75
2022-11-27T07:44:58.711Z,97875.09
2022-11-27T07:47:27.020Z,97862.63
2022-11-27T07:49:58.424Z,97875.09
2022-11-27T07:52:26.626Z,97878.25
2022-11-27T07:54:55.543Z,97889.56
2022-11-27T07:57:25.343Z,97882.88
2022-11-27T07:59:54.595Z,97883.03
2022-11-27T08:02:25.146Z,97889.34
2022-11-27T08:04:53.942Z,97873.66
2022-11-27T08:07:22.920Z,97872.84
2022-11-27T08:09:51.259Z,97861.94
2022-11-27T08:12:19.697Z,97880.41
2022-11-27T08:14:49.344Z,97869.94
2022-11-27T08:17:17.792Z,97868.81
2022-11-27T08:19:46.156Z,97859.78
2022-11-27T08:22:19.463Z,97864.91
2022-11-27T08:24:48.148Z,97860.31
2022-11-27T08:27:17.247Z,97838.56
2022-11-27T08:29:46.364Z,97841.41
2022-11-27T08:32:16.284Z,97826.16
2022-11-27T08:34:44.747Z,97831.41
2022-11-27T08:37:13.561Z,97832.59
2022-11-27T08:39:41.845Z,97834.66
2022-11-27T08:42:10.179Z,97834.13
2022-11-27T08:44:38.605Z,97845.63
2022-11-27T08:47:07.247Z,97854.03
2022-11-27T08:49:39.157Z,97882.34
2022-11-27T08:52:09.745Z,97888.47
2022-11-27T08:54:38.526Z,97890.41
2022-11-27T08:57:07.177Z,97887.50
2022-11-27T08:59:35.343Z,97892.81
2022-11-27T09:02:04.907Z,97874.72
2022-11-27T09:04:33.207Z,97861.59
2022-11-27T09:07:02.846Z,97850.09
2022-11-27T09:09:31.043Z,97837.13
2022-11-27T09:11:59.372Z,97848.94
2022-11-27T09:14:27.561Z,97846.09
2022-11-27T09:16:56.032Z,97860.22
2022-11-27T09:19:25.915Z,97860.09
2022-11-27T09:21:54.202Z,97866.47
2022-11-27T09:24:23.837Z,97864.84
2022-11-27T09:26:52.160Z,97841.50
2022-11-27T09:29:20.396Z,97841.66
2022-11-27T09:31:48.726Z,97855.31
2022-11-27T09:34:18.119Z,97857.16
2022-11-27T09:36:46.391Z,97854.84
2022-11-27T09:39:15.625Z,97858.97
2022-11-27T09:41:51.304Z,97839.41
2022-11-27T09:44:30.968Z,97837.44
2022-11-27T09:47:05.874Z,97831.16
2022-11-27T09:49:42.475Z,97825.66
2022-11-27T09:52:19.306Z,97822.91
2022-11-27T09:54:56.323Z,97825.91
2022-11-27T09:57:34.534Z,97816.31
2022-11-27T10:00:07.428Z,97812.50
2022-11-27T10:02:36.682Z,97822.53
2022-11-27T10:05:14.378Z,97813.78
2022-11-27T10:08:08.973Z,97818.47
2022-11-27T10:10:44.745Z,97807.56
2022-11-27T10:13:40.819Z,97806.75
2022-11-27T10:16:16.713Z,97793.84
2022-11-27T10:18:49.639Z,97784.84
2022-11-27T10:21:37.608Z,97773.78
2022-11-27T10:24:17.238Z,97773.66
2022-11-27T10:26:49.407Z,97787.91
2022-11-27T10:29:36.151Z,97776.22
2022-11-27T10:32:32.858Z,97790.69
2022-11-27T10:35:05.896Z,97784.59
2022-11-27T10:37:42.741Z,97767.41
2022-11-27T10:40:24.114Z,97760.72
2022-11-27T10:43:00.674Z,97751.66
2022-11-27T10:45:43.721Z,97753.09
2022-11-27T10:48:12.909Z,97748.91
2022-11-27T10:50:42.083Z,97755.13
2022-11-27T10:53:15.969Z,97751.34
2022-11-27T10:56:08.674Z,97755.84
2022-11-27T10:58:44.440Z,97742.50
2022-11-27T11:01:20.182Z,97731.13
2022-11-27T11:03:49.204Z,97734.41
2022-11-27T11:06:23.632Z,97726.56
2022-11-27T11:09:07.323Z,97722.50
2022-11-27T11:11:41.939Z,97713.69
2022-11-27T11:14:51.128Z,97715.03
2022-11-27T11:17:46.561Z,97700.88
2022-11-27T11:20:23.821Z,97702.94
2022-11-27T11:22:58.376Z,97684.81
2022-11-27T11:26:12.352Z,97693.91
2022-11-27T11:28:52.041Z,97688.34
2022-11-27T11:31:39.238Z,97682.78
2022-11-27T11:34:36.722Z,97691.72
2022-11-27T11:37:42.785Z,97686.53
2022-11-27T11:40:38.031Z,97661.72
2022-11-27T11:43:33.825Z,97669.75
2022-11-27T11:46:19.486Z,97662.16
2022-11-27T11:49:19.178Z,97653.56
2022-11-27T11:52:40.464Z,97650.38
2022-11-27T11:55:32.529Z,97643.41
2022-11-27T11:59:00.033Z,97630.66
2022-11-27T12:02:19.846Z,97636.00
2022-11-27T12:05:21.590Z,97632.81
2022-11-27T12:08:57.982Z,97641.69
2022-11-27T12:11:57.715Z,97645.22
2022-11-27T12:14:54.235Z,97623.44
2022-11-27T12:18:18.444Z,97617.16
2022-11-27T12:21:05.939Z,97624.13
2022-11-27T12:24:16.433Z,97608.91
2022-11-27T12:27:13.371Z,97611.25
2022-11-27T12:30:28.891Z,97587.56
2022-11-27T12:33:45.362Z,97590.53
2022-11-27T12:36:38.753Z,97588.94
2022-11-27T12:39:30.230Z,97586.44
2022-11-27T12:42:29.612Z,97587.28
2022-11-27T12:45:27.003Z,97578.75
2022-11-27T12:48:12.163Z,97563.47
2022-11-27T12:50:54.394Z,97570.00
2022-11-27T12:53:53.693Z,97582.91
2022-11-27T12:56:50.735Z,97568.50
2022-11-27T13:02:39.378Z,97571.59
2022-11-27T13:05:24.940Z,97569.50
2022-11-27T13:08:15.002Z,97535.19
2022-11-27T13:11:07.532Z,97549.31
2022-11-27T13:13:55.200Z,97532.19
2022-11-27T13:16:43.659Z,97544.91
2022-11-27T13:19:19.877Z,97548.66
2022-11-27T13:22:03.759Z,97553.16
2022-11-27T13:24:47.774Z,97554.22
2022-11-27T13:27:28.111Z,97528.09
2022-11-27T13:30:24.227Z,97527.66
2022-11-27T13:33:40.983Z,97519.19
2022-11-27T13:36:53.096Z,97524.41
2022-11-27T13:39:37.501Z,97523.47
2022-11-27T13:42:25.357Z,97525.16
2022-11-27T13:45:19.853Z,97515.28
2022-11-27T13:48:00.036Z,97495.16
2022-11-27T13:50:49.613Z,97473.16
2022-11-27T13:53:53.934Z,97479.34
2022-11-27T13:56:48.158Z,97482.38
2022-11-27T13:59:25.258Z,97484.75
2022-11-27T14:02:16.584Z,97470.38
2022-11-27T14:04:58.005Z,97472.72
2022-11-27T14:07:47.231Z,97452.81
2022-11-27T14:10:33.252Z,97439.66
2022-11-27T14:13:27.424Z,97443.66
2022-11-27T14:16:22.860Z,97452.56
2022-11-27T14:19:28.204Z,97444.97
2022-11-27T14:25:59.636Z,97453.88
2022-11-27T14:28:57.534Z,97467.34
2022-11-27T14:32:21.918Z,97457.75
2022-11-27T14:35:40.856Z,97458.97
2022-11-27T14:38:24.116Z,97459.25
2022-11-27T14:41:29.616Z,97449.13
2022-11-27T14:44:23.980Z,97443.38
2022-11-27T14:47:13.695Z,97438.81
2022-11-27T14:50:04.307Z,97436.94
2022-11-27T14:52:51.058Z,97439.38
2022-11-27T14:55:45.079Z,97420.72
2022-11-27T14:58:37.760Z,97416.19
2022-11-27T15:01:48.500Z,97404.69
2022-11-27T15:04:41.897Z,97400.44
2022-11-27T15:07:46.662Z,97404.41
2022-11-27T15:10:47.562Z,97397.25
2022-11-27T15:13:54.040Z,97374.53
2022-11-27T15:16:37.985Z,97381.88
2022-11-27T15:19:35.160Z,97383.34
2022-11-27T15:22:23.513Z,97375.25
2022-11-27T15:25:14.971Z,97375.19
2022-11-27T15:27:49.806Z,97380.22
2022-11-27T15:30:20.643Z,97377.34
2022-11-27T15:32:52.859Z,97375.88
2022-11-27T15:35:29.214Z,97381.72
2022-11-27T15:38:04.211Z,97374.19
2022-11-27T15:40:37.100Z,97376.94
2022-11-27T15:43:13.506Z,97357.22
2022-11-27T15:45:42.243Z,97354.47
2022-11-27T15:48:16.992Z,97348.88
2022-11-27T15:50:51.422Z,97345.66
2022-11-27T15:53:20.718Z,97341.25
2022-11-27T15:55:50.415Z,97347.91
2022-11-27T15:58:18.657Z,97340.22
2022-11-27T16:00:47.736Z,97332.34
2022-11-27T16:03:16.977Z,97331.34
2022-11-27T16:08:26.794Z,97328.13
2022-11-27T16:11:02.605Z,97315.22
2022-11-27T16:13:31.078Z,97321.88
2022-11-27T16:16:03.254Z,97313.81
2022-11-27T16:18:32.782Z,97311.22
2022-11-27T16:21:05.611Z,97311.75
2022-11-27T16:23:35.499Z,97311.38
2022-11-27T16:26:04.335Z,97314.25
2022-11-27T16:28:33.486Z,97316.28
2022-11-27T16:31:04.868Z,97311.03
2022-11-27T16:33:34.267Z,97316.50
2022-11-27T16:36:07.403Z,97300.06
2022-11-27T16:38:41.359Z,97303.03
2022-11-27T16:41:17.951Z,97298.53
2022-11-27T16:43:49.705Z,97281.56
2022-11-27T16:46:20.529Z,97298.19
2022-11-27T16:48:49.981Z,97289.91
2022-11-27T16:51:22.741Z,97283.34
2022-11-27T16:53:55.596Z,97273.38
2022-11-27T16:56:26.229Z,97267.16
2022-11-27T16:59:00.994Z,97268.72
2022-11-27T17:01:34.493Z,97273.47
2022-11-27T17:04:04.979Z,97288.34
2022-11-27T17:06:39.738Z,97273.66
2022-11-27T17:09:10.138Z,97279.13
2022-11-27T17:11:43.392Z,97274.88
2022-11-27T17:14:12.289Z,97266.72
2022-11-27T17:16:42.726Z,97253.09
2022-11-27T17:19:14.270Z,97240.94
2022-11-27T17:21:43.059Z,97241.59
2022-11-27T17:24:16.206Z,97248.81
2022-11-27T17:26:46.412Z,97248.53
2022-11-27T17:29:19.643Z,97232.06
2022-11-27T17:31:48.214Z,97231.22
2022-11-27T17:34:18.917Z,97222.53
2022-11-27T17:36:53.290Z,97217.06
2022-11-27T17:39:23.508Z,97220.81
2022-11-27T17:41:52.062Z,97217.00
2022-11-27T17:44:20.667Z,97216.53
2022-11-27T17:46:50.727Z,97210.78
2022-11-27T17:49:23.005Z,97209.09
2022-11-27T17:51:51.273Z,97207.56
2022-11-27T17:54:19.617Z,97197.63
2022-11-27T17:56:51.569Z,97200.56
2022-11-27T17:59:20.649Z,97195.84
2022-11-27T18:01:51.420Z,97195.59
2022-11-27T18:04:20.332Z,97196.94
2022-11-27T18:06:48.865Z,97206.97
2022-11-27T18:09:17.237Z,97203.28
2022-11-27T18:11:45.674Z,97207.09
2022-11-27T18:14:15.338Z,97208.97
2022-11-27T18:16:43.895Z,97197.47
2022-11-27T18:19:12.909Z,97192.09
2022-11-27T18:21:42.159Z,97200.03
2022-11-27T18:24:22.896Z,97189.56
2022-11-27T18:27:09.186Z,97181.91
2022-11-27T18:29:41.501Z,97182.19
2022-11-27T18:32:10.422Z,97176.78
2022-11-27T18:34:39.102Z,97170.88
2022-11-27T18:37:08.122Z,97165.13
2022-11-27T18:39:37.045Z,97162.75
2022-11-27T18:42:06.145Z,97156.72
2022-11-27T18:44:39.606Z,97155.28
2022-11-27T18:47:14.586Z,97161.28
2022-11-27T18:49:43.410Z,97161.00
2022-11-27T18:52:12.611Z,97165.28
2022-11-27T18:54:41.198Z,97157.78
2022-11-27T18:57:11.224Z,97149.97
2022-11-27T18:59:40.403Z,97137.31
2022-11-27T19:02:09.243Z,97152.25
2022-11-27T19:04:39.583Z,97137.16
2022-11-27T19:07:08.183Z,97146.94
2022-11-27T19:09:36.767Z,97134.41
2022-11-27T19:12:06.054Z,97133.28
2022-11-27T19:14:34.726Z,97125.31
2022-11-27T19:17:03.075Z,97140.44
2022-11-27T19:22:22.754Z,97140.69
2022-11-27T19:24:51.171Z,97129.31
2022-11-27T19:27:19.470Z,97124.91
2022-11-27T19:29:48.947Z,97125.97
2022-11-27T19:32:17.228Z,97118.72
2022-11-27T19:34:45.597Z,97115.97
2022-11-27T19:37:13.964Z,97106.25
2022-11-27T19:39:43.735Z,97110.19
2022-11-27T19:42:12.065Z,97102.34
2022-11-27T19:44:40.885Z,97097.66
2022-11-27T19:47:10.364Z,97099.25
2022-11-27T19:49:38.596Z,97098.47
2022-11-27T19:52:06.999Z,97087.88
2022-11-27T19:54:35.304Z,97094.38
2022-11-27T19:57:05.421Z,97085.97
2022-11-27T19:59:33.744Z,97082.56
2022-11-27T20:02:02.207Z,97079.38
2022-11-27T20:04:30.653Z,97068.44
2022-11-27T20:06:59.278Z,97071.41
2022-11-27T20:09:27.579Z,97057.78
2022-11-27T20:11:56.038Z,97056.13
2022-11-27T20:14:29.705Z,97052.25
2022-11-27T20:16:58.042Z,97058.59
2022-11-27T20:19:26.482Z,97056.47
2022-11-27T20:21:54.834Z,97073.78
2022-11-27T20:24:23.120Z,97063.78
2022-11-27T20:26:51.474Z,97061.28
2022-11-27T20:29:20.188Z,97053.47
2022-11-27T20:31:49.891Z,97055.47
2022-11-27T20:34:20.949Z,97061.63
2022-11-27T20:36:52.417Z,97044.00
2022-11-27T20:39:22.065Z,97042.72
2022-11-27T20:41:51.859Z,97031.69
2022-11-27T20:44:22.361Z,97025.75
2022-11-27T20:46:52.752Z,97033.25
2022-11-27T20:49:22.026Z,97032.31
2022-11-27T20:51:50.773Z,97037.47
2022-11-27T20:54:19.831Z,97032.38
2022-11-27T20:56:51.506Z,97030.88
2022-11-27T20:59:22.089Z,97033.97
2022-11-27T21:01:52.058Z,97028.19
2022-11-27T21:04:24.889Z,97031.47
2022-11-27T21:06:53.770Z,97012.59
2022-11-27T21:09:26.813Z,97005.75
2022-11-27T21:11:55.171Z,97007.34
2022-11-27T21:14:23.438Z,97020.06
2022-11-27T21:16:54.138Z,97002.53
2022-11-27T21:19:26.369Z,96998.47
2022-11-27T21:21:55.885Z,96988.84
2022-11-27T21:24:27.387Z,96990.44
2022-11-27T21:26:55.906Z,96981.09
2022-11-27T21:29:25.870Z,96990.66
2022-11-27T21:31:57.124Z,96983.38
2022-11-27T21:34:26.215Z,96977.63
2022-11-27T21:36:54.700Z,96984.00
2022-11-27T21:39:24.888Z,96979.97
2022-11-27T21:41:56.170Z,96983.31
2022-11-27T21:44:26.298Z,96981.69
2022-11-27T21:46:56.096Z,96980.59
2022-11-27T21:49:24.632Z,96987.81
2022-11-27T21:51:53.853Z,96976.38
2022-11-27T21:54:23.056Z,96975.09
2022-11-27T21:56:53.813Z,96984.53
2022-11-27T21:59:22.373Z,96985.31
2022-11-27T22:01:51.525Z,96983.56
2022-11-27T22:04:21.471Z,96983.88
2022-11-27T22:06:50.003Z,96984.81
2022-11-27T22:09:18.949Z,96974.66
2022-11-27T22:11:48.189Z,96981.00
2022-11-27T22:14:17.907Z,96981.84
2022-11-27T22:16:47.410Z,96976.09
2022-11-27T22:19:16.685Z,96975.22
2022-11-27T22:21:47.195Z,96970.81
2022-11-27T22:24:19.967Z,96962.47
2022-11-27T22:26:51.468Z,96961.97
2022-11-27T22:29:22.131Z,96957.00
2022-11-27T22:31:57.913Z,96945.91
2022-11-27T22:34:31.840Z,96940.97
2022-11-27T22:37:06.125Z,96938.41
2022-11-27T22:39:37.591Z,96934.94
2022-11-27T22:42:11.837Z,96929.97
2022-11-27T22:44:44.875Z,96918.19
2022-11-27T22:47:14.460Z,96913.47
2022-11-27T22:49:44.098Z,96916.28
2022-11-27T22:52:14.751Z,96913.81
2022-11-27T22:54:46.095Z,96906.72
2022-11-27T22:57:15.151Z,96915.34
2022-11-27T22:59:45.518Z,96920.72
2022-11-27T23:02:17.423Z,96915.81
2022-11-27T23:04:46.512Z,96926.97
2022-11-27T23:07:18.820Z,96915.06
2022-11-27T23:09:51.511Z,96887.84
2022-11-27T23:12:21.165Z,96868.09
2022-11-27T23:14:49.467Z,96862.31
2022-11-27T23:17:18.207Z,96854.97
2022-11-27T23:19:46.613Z,96872.56
2022-11-27T23:22:16.302Z,96901.31
2022-11-27T23:24:45.397Z,96904.44
2022-11-27T23:27:16.207Z,96885.25
2022-11-27T23:29:44.629Z,96890.81
2022-11-27T23:32:13.024Z,96897.38
2022-11-27T23:34:41.911Z,96887.13
2022-11-27T23:37:10.358Z,96876.00
2022-11-27T23:39:40.453Z,96889.22
2022-11-27T23:42:08.892Z,96888.53
2022-11-27T23:44:37.737Z,96898.00
2022-11-27T23:47:06.794Z,96896.00
2022-11-27T23:49:35.346Z,96878.59
2022-11-27T23:52:03.856Z,96877.59
2022-11-27T23:54:32.582Z,96878.13
2022-11-27T23:57:04.702Z,96873.63
2022-11-27T23:59:33.160Z,96865.28
